createdAt,value
2023-03-04T00:00:50.673Z,87.60
2023-03-04T00:01:50.675Z,87.60
2023-03-04T00:02:50.759Z,87.60
2023-03-04T00:03:50.766Z,87.71
2023-03-04T00:04:50.627Z,87.81
2023-03-04T00:05:50.631Z,87.92
2023-03-04T00:06:50.638Z,88.02
2023-03-04T00:07:50.675Z,88.02
2023-03-04T00:08:50.621Z,88.02
2023-03-04T00:09:50.579Z,88.12
2023-03-04T00:10:50.576Z,88.02
2023-03-04T00:11:50.555Z,88.12
2023-03-04T00:12:50.608Z,88.12
2023-03-04T00:13:50.567Z,88.12
2023-03-04T00:14:50.509Z,88.12
2023-03-04T00:15:50.503Z,88.02
2023-03-04T00:16:50.563Z,88.02
2023-03-04T00:17:50.539Z,88.02
2023-03-04T00:18:50.622Z,87.92
2023-03-04T00:19:50.457Z,88.02
2023-03-04T00:20:50.444Z,88.12
2023-03-04T00:21:50.430Z,88.12
2023-03-04T00:22:50.440Z,88.17
2023-03-04T00:23:50.432Z,88.27
2023-03-04T00:24:50.433Z,88.17
2023-03-04T00:25:50.389Z,88.17
2023-03-04T00:26:50.407Z,88.27
2023-03-04T00:27:50.378Z,88.27
2023-03-04T00:28:50.373Z,88.27
2023-03-04T00:29:50.340Z,88.37
2023-03-04T00:30:50.340Z,88.37
2023-03-04T00:31:50.388Z,88.27
2023-03-04T00:32:50.316Z,88.27
2023-03-04T00:33:50.345Z,88.27
2023-03-04T00:34:50.296Z,88.27
2023-03-04T00:35:50.329Z,88.37
2023-03-04T00:36:50.264Z,88.37
2023-03-04T00:37:50.259Z,88.48
2023-03-04T00:38:50.290Z,88.52
2023-03-04T00:39:50.247Z,88.52
2023-03-04T00:40:50.222Z,88.62
2023-03-04T00:41:50.279Z,88.48
2023-03-04T00:42:50.206Z,88.48
2023-03-04T00:43:50.308Z,88.52
2023-03-04T00:44:50.176Z,88.52
2023-03-04T00:45:50.247Z,88.52
2023-03-04T00:46:50.176Z,88.52
2023-03-04T00:47:50.152Z,88.52
2023-03-04T00:48:50.196Z,88.52
2023-03-04T00:49:50.137Z,88.52
2023-03-04T00:50:50.148Z,88.62
2023-03-04T00:51:50.110Z,88.62
2023-03-04T00:52:50.089Z,88.52
2023-03-04T00:53:50.086Z,88.62
2023-03-04T00:54:50.088Z,88.62
2023-03-04T00:55:50.059Z,88.62
2023-03-04T00:56:50.071Z,88.73
2023-03-04T00:57:50.031Z,88.73
2023-03-04T00:58:50.057Z,88.62
2023-03-04T00:59:50.061Z,88.62
2023-03-04T01:00:49.996Z,88.52
2023-03-04T01:01:50.063Z,88.52
2023-03-04T01:02:50.070Z,88.52
2023-03-04T01:03:49.984Z,88.42
2023-03-04T01:04:49.960Z,88.42
2023-03-04T01:05:49.987Z,88.42
2023-03-04T01:06:49.939Z,88.42
2023-03-04T01:07:49.963Z,88.42
2023-03-04T01:08:49.960Z,88.42
2023-03-04T01:09:49.890Z,88.42
2023-03-04T01:10:50.606Z,88.52
2023-03-04T01:11:49.874Z,88.42
2023-03-04T01:12:49.885Z,88.42
2023-03-04T01:13:49.881Z,88.42
2023-03-04T01:14:49.869Z,88.42
2023-03-04T01:15:49.846Z,88.42
2023-03-04T01:16:49.916Z,88.45
2023-03-04T01:17:49.885Z,88.45
2023-03-04T01:18:49.852Z,88.45
2023-03-04T01:19:49.814Z,88.45
2023-03-04T01:20:49.787Z,88.45
2023-03-04T01:21:49.763Z,88.45
2023-03-04T01:22:49.757Z,88.45
2023-03-04T01:23:49.745Z,88.45
2023-03-04T01:24:49.730Z,88.45
2023-03-04T01:25:49.739Z,88.45
2023-03-04T01:26:49.770Z,88.45
2023-03-04T01:27:49.714Z,88.45
2023-03-04T01:28:49.769Z,88.56
2023-03-04T01:29:49.691Z,88.66
2023-03-04T01:30:49.710Z,88.76
2023-03-04T01:31:49.645Z,88.76
2023-03-04T01:32:49.667Z,88.76
2023-03-04T01:33:49.640Z,88.76
2023-03-04T01:34:49.619Z,88.76
2023-03-04T01:35:49.639Z,88.76
2023-03-04T01:36:49.619Z,88.76
2023-03-04T01:37:49.585Z,88.66
2023-03-04T01:38:49.602Z,88.81
2023-03-04T01:39:49.572Z,88.76
2023-03-04T01:40:49.556Z,88.81
2023-03-04T01:41:49.587Z,88.91
2023-03-04T01:42:49.590Z,88.91
2023-03-04T01:43:49.561Z,89.01
2023-03-04T01:44:49.593Z,89.01
2023-03-04T01:45:49.528Z,89.01
2023-03-04T01:46:49.491Z,88.91
2023-03-04T01:47:49.587Z,89.01
2023-03-04T01:48:49.515Z,89.01
2023-03-04T01:49:49.458Z,89.12
2023-03-04T01:50:49.467Z,89.12
2023-03-04T01:51:49.430Z,89.12
2023-03-04T01:52:49.454Z,89.12
2023-03-04T01:53:49.470Z,89.12
2023-03-04T01:54:49.406Z,89.12
2023-03-04T01:55:49.440Z,89.12
2023-03-04T01:56:49.402Z,89.12
2023-03-04T01:57:49.363Z,89.22
2023-03-04T01:58:49.390Z,89.22
2023-03-04T01:59:49.344Z,89.22
2023-03-04T02:00:50.384Z,89.22
2023-03-04T02:01:49.445Z,89.22
2023-03-04T02:02:49.322Z,89.22
2023-03-04T02:03:49.316Z,89.32
2023-03-04T02:04:49.300Z,89.32
2023-03-04T02:05:49.293Z,89.22
2023-03-04T02:06:49.293Z,89.22
2023-03-04T02:07:49.262Z,89.22
2023-03-04T02:08:49.266Z,89.22
2023-03-04T02:09:49.243Z,89.32
2023-03-04T02:10:49.223Z,89.32
2023-03-04T02:11:49.257Z,89.32
2023-03-04T02:12:49.209Z,89.22
2023-03-04T02:13:49.214Z,89.22
2023-03-04T02:14:49.204Z,89.22
2023-03-04T02:15:49.196Z,89.22
2023-03-04T02:16:49.167Z,89.22
2023-03-04T02:17:49.158Z,89.22
2023-03-04T02:18:49.145Z,89.22
2023-03-04T02:19:49.222Z,89.22
2023-03-04T02:20:49.131Z,89.22
2023-03-04T02:21:49.098Z,89.26
2023-03-04T02:22:49.097Z,89.12
2023-03-04T02:23:49.100Z,89.16
2023-03-04T02:24:49.133Z,89.16
2023-03-04T02:25:49.073Z,89.22
2023-03-04T02:26:49.063Z,89.26
2023-03-04T02:27:49.031Z,89.26
2023-03-04T02:28:49.049Z,89.26
2023-03-04T02:29:49.019Z,89.37
2023-03-04T02:30:49.071Z,89.37
2023-03-04T02:31:48.987Z,89.26
2023-03-04T02:32:49.009Z,89.26
2023-03-04T02:33:48.976Z,89.26
2023-03-04T02:34:48.974Z,89.16
2023-03-04T02:35:48.983Z,89.16
2023-03-04T02:36:48.971Z,89.06
2023-03-04T02:37:48.943Z,89.16
2023-03-04T02:38:48.929Z,89.06
2023-03-04T02:39:48.917Z,89.06
2023-03-04T02:40:48.899Z,89.06
2023-03-04T02:41:48.886Z,89.06
2023-03-04T02:42:48.912Z,88.95
2023-03-04T02:43:48.860Z,88.95
2023-03-04T02:44:48.863Z,88.95
2023-03-04T02:45:48.840Z,88.95
2023-03-04T02:46:48.903Z,88.95
2023-03-04T02:47:48.816Z,88.95
2023-03-04T02:48:48.807Z,88.95
2023-03-04T02:49:48.799Z,88.95
2023-03-04T02:50:48.798Z,88.95
2023-03-04T02:51:48.794Z,88.95
2023-03-04T02:52:48.762Z,88.95
2023-03-04T02:53:48.785Z,88.95
2023-03-04T02:54:48.760Z,88.95
2023-03-04T02:55:48.770Z,88.95
2023-03-04T02:56:48.739Z,88.85
2023-03-04T02:57:48.725Z,88.85
2023-03-04T02:58:48.736Z,88.85
2023-03-04T02:59:48.710Z,88.85
2023-03-04T03:00:48.711Z,88.85
2023-03-04T03:01:48.741Z,88.85
2023-03-04T03:02:48.691Z,88.81
2023-03-04T03:03:48.666Z,88.85
2023-03-04T03:04:48.661Z,88.85
2023-03-04T03:05:48.634Z,88.85
2023-03-04T03:06:48.612Z,88.75
2023-03-04T03:07:48.593Z,88.75
2023-03-04T03:08:48.594Z,88.75
2023-03-04T03:09:48.616Z,88.75
2023-03-04T03:10:48.576Z,88.75
2023-03-04T03:11:48.603Z,88.75
2023-03-04T03:12:48.558Z,88.75
2023-03-04T03:13:48.531Z,88.85
2023-03-04T03:14:48.535Z,88.85
2023-03-04T03:15:50.129Z,88.85
2023-03-04T03:16:48.549Z,88.75
2023-03-04T03:17:48.491Z,88.75
2023-03-04T03:18:48.487Z,88.85
2023-03-04T03:19:48.496Z,88.75
2023-03-04T03:20:48.458Z,88.75
2023-03-04T03:21:48.450Z,88.75
2023-03-04T03:22:48.438Z,88.85
2023-03-04T03:23:48.427Z,88.75
2023-03-04T03:24:48.419Z,88.75
2023-03-04T03:25:48.399Z,88.75
2023-03-04T03:26:48.388Z,88.75
2023-03-04T03:27:48.388Z,88.75
2023-03-04T03:28:48.375Z,88.75
2023-03-04T03:29:48.374Z,88.75
2023-03-04T03:30:48.349Z,88.75
2023-03-04T03:31:48.364Z,88.75
2023-03-04T03:32:48.316Z,88.78
2023-03-04T03:33:48.330Z,88.78
2023-03-04T03:34:48.316Z,88.78
2023-03-04T03:35:48.386Z,88.89
2023-03-04T03:36:48.289Z,88.78
2023-03-04T03:37:48.260Z,88.78
2023-03-04T03:38:48.290Z,88.78
2023-03-04T03:39:48.240Z,88.78
2023-03-04T03:40:48.252Z,88.78
2023-03-04T03:41:48.224Z,88.78
2023-03-04T03:42:48.231Z,88.89
2023-03-04T03:43:48.209Z,88.99
2023-03-04T03:44:48.181Z,88.99
2023-03-04T03:45:48.242Z,88.99
2023-03-04T03:46:48.168Z,88.99
2023-03-04T03:47:48.159Z,88.99
2023-03-04T03:48:48.173Z,88.99
2023-03-04T03:49:48.131Z,88.99
2023-03-04T03:50:48.144Z,89.03
2023-03-04T03:51:48.165Z,89.03
2023-03-04T03:52:48.109Z,89.03
2023-03-04T03:53:48.096Z,89.03
2023-03-04T03:54:48.090Z,89.03
2023-03-04T03:55:48.128Z,89.03
2023-03-04T03:56:48.053Z,89.03
2023-03-04T03:57:48.098Z,88.93
2023-03-04T03:58:48.046Z,89.03
2023-03-04T03:59:48.040Z,89.03
2023-03-04T04:00:48.034Z,89.03
2023-03-04T04:01:48.040Z,89.03
2023-03-04T04:02:48.120Z,89.03
2023-03-04T04:03:47.995Z,89.03
2023-03-04T04:04:47.991Z,89.03
2023-03-04T04:05:47.970Z,88.93
2023-03-04T04:06:47.965Z,88.93
2023-03-04T04:07:47.941Z,88.93
2023-03-04T04:08:47.933Z,89.03
2023-03-04T04:09:47.916Z,89.03
2023-03-04T04:10:47.922Z,88.93
2023-03-04T04:11:47.905Z,88.93
2023-03-04T04:12:47.905Z,88.82
2023-03-04T04:13:47.890Z,88.82
2023-03-04T04:14:47.901Z,88.82
2023-03-04T04:15:47.870Z,88.82
2023-03-04T04:16:47.876Z,88.72
2023-03-04T04:17:47.849Z,88.72
2023-03-04T04:18:47.826Z,88.72
2023-03-04T04:19:47.805Z,88.62
2023-03-04T04:20:47.820Z,88.72
2023-03-04T04:21:47.796Z,88.82
2023-03-04T04:22:47.782Z,88.72
2023-03-04T04:23:47.775Z,88.72
2023-03-04T04:24:47.748Z,88.72
2023-03-04T04:25:47.761Z,88.62
2023-03-04T04:26:47.750Z,88.72
2023-03-04T04:27:47.712Z,88.65
2023-03-04T04:28:47.716Z,88.76
2023-03-04T04:29:47.702Z,88.76
2023-03-04T04:30:47.753Z,88.76
2023-03-04T04:31:47.669Z,88.76
2023-03-04T04:32:47.667Z,88.76
2023-03-04T04:33:47.661Z,88.76
2023-03-04T04:34:47.634Z,88.76
2023-03-04T04:35:47.668Z,88.62
2023-03-04T04:36:47.618Z,88.65
2023-03-04T04:37:47.628Z,88.62
2023-03-04T04:38:47.614Z,88.51
2023-03-04T04:39:47.577Z,88.41
2023-03-04T04:40:47.588Z,88.41
2023-03-04T04:41:47.568Z,88.34
2023-03-04T04:42:47.621Z,88.24
2023-03-04T04:43:47.558Z,88.24
2023-03-04T04:44:47.523Z,88.24
2023-03-04T04:45:47.568Z,88.24
2023-03-04T04:46:47.547Z,88.13
2023-03-04T04:47:47.512Z,88.13
2023-03-04T04:48:47.515Z,88.24
2023-03-04T04:49:47.474Z,88.24
2023-03-04T04:50:47.511Z,88.24
2023-03-04T04:51:47.559Z,88.24
2023-03-04T04:52:47.477Z,88.45
2023-03-04T04:53:47.439Z,88.45
2023-03-04T04:54:47.429Z,88.45
2023-03-04T04:55:47.494Z,88.55
2023-03-04T04:56:47.412Z,88.65
2023-03-04T04:57:47.446Z,88.65
2023-03-04T04:58:47.370Z,88.55
2023-03-04T04:59:47.429Z,88.55
2023-03-04T05:00:47.357Z,88.45
2023-03-04T05:01:47.453Z,88.45
2023-03-04T05:02:47.342Z,88.45
2023-03-04T05:03:47.500Z,88.34
2023-03-04T05:04:47.305Z,88.24
2023-03-04T05:05:47.307Z,88.24
2023-03-04T05:06:47.300Z,88.13
2023-03-04T05:07:47.279Z,88.13
2023-03-04T05:08:47.292Z,88.13
2023-03-04T05:09:47.286Z,88.13
2023-03-04T05:10:47.278Z,88.13
2023-03-04T05:11:47.277Z,88.13
2023-03-04T05:12:47.219Z,88.13
2023-03-04T05:13:47.331Z,88.13
2023-03-04T05:14:47.225Z,88.13
2023-03-04T05:15:47.203Z,88.13
2023-03-04T05:16:47.182Z,88.13
2023-03-04T05:17:47.218Z,88.13
2023-03-04T05:18:47.157Z,88.13
2023-03-04T05:19:47.164Z,88.03
2023-03-04T05:20:47.174Z,88.13
2023-03-04T05:21:47.147Z,88.13
2023-03-04T05:22:47.174Z,88.13
2023-03-04T05:23:47.112Z,88.13
2023-03-04T05:24:47.098Z,88.13
2023-03-04T05:25:47.114Z,88.13
2023-03-04T05:26:47.082Z,88.17
2023-03-04T05:27:47.085Z,88.17
2023-03-04T05:28:47.072Z,88.17
2023-03-04T05:29:47.079Z,88.17
2023-03-04T05:30:47.048Z,88.17
2023-03-04T05:31:47.022Z,88.17
2023-03-04T05:32:47.020Z,88.17
2023-03-04T05:33:47.033Z,88.17
2023-03-04T05:34:46.997Z,88.17
2023-03-04T05:35:47.035Z,88.17
2023-03-04T05:36:47.007Z,88.17
2023-03-04T05:37:46.977Z,88.17
2023-03-04T05:38:46.948Z,88.28
2023-03-04T05:39:46.942Z,88.28
2023-03-04T05:40:46.935Z,88.28
2023-03-04T05:41:47.145Z,88.28
2023-03-04T05:42:46.892Z,88.28
2023-03-04T05:43:46.912Z,88.28
2023-03-04T05:44:46.907Z,88.28
2023-03-04T05:45:46.868Z,88.28
2023-03-04T05:46:46.955Z,88.28
2023-03-04T05:47:46.876Z,88.39
2023-03-04T05:48:46.837Z,88.39
2023-03-04T05:49:46.833Z,88.39
2023-03-04T05:50:47.042Z,88.39
2023-03-04T05:51:46.812Z,88.39
2023-03-04T05:52:46.785Z,88.28
2023-03-04T05:53:46.788Z,88.49
2023-03-04T05:54:46.780Z,88.49
2023-03-04T05:55:46.749Z,88.59
2023-03-04T05:56:46.755Z,88.49
2023-03-04T05:57:46.765Z,88.59
2023-03-04T05:58:46.727Z,88.59
2023-03-04T05:59:46.715Z,88.49
2023-03-04T06:00:46.713Z,88.49
2023-03-04T06:01:46.720Z,88.49
2023-03-04T06:02:46.791Z,88.49
2023-03-04T06:03:46.710Z,88.49
2023-03-04T06:04:46.645Z,88.49
2023-03-04T06:05:46.653Z,88.49
2023-03-04T06:06:46.668Z,88.49
2023-03-04T06:07:46.635Z,88.49
2023-03-04T06:08:46.616Z,88.49
2023-03-04T06:09:46.603Z,88.49
2023-03-04T06:10:46.581Z,88.39
2023-03-04T06:11:46.580Z,88.39
2023-03-04T06:12:46.572Z,88.28
2023-03-04T06:13:46.607Z,88.28
2023-03-04T06:14:46.539Z,88.28
2023-03-04T06:15:46.627Z,88.24
2023-03-04T06:16:46.554Z,88.24
2023-03-04T06:17:46.545Z,88.13
2023-03-04T06:18:46.549Z,88.13
2023-03-04T06:19:46.512Z,88.13
2023-03-04T06:20:46.471Z,88.13
2023-03-04T06:21:46.539Z,88.13
2023-03-04T06:22:46.651Z,88.13
2023-03-04T06:23:46.538Z,88.13
2023-03-04T06:24:46.422Z,88.03
2023-03-04T06:25:46.424Z,88.03
2023-03-04T06:26:46.447Z,88.03
2023-03-04T06:27:46.418Z,88.03
2023-03-04T06:28:46.385Z,87.93
2023-03-04T06:29:46.386Z,87.93
2023-03-04T06:30:46.418Z,87.93
2023-03-04T06:31:46.412Z,87.82
2023-03-04T06:32:46.356Z,87.82
2023-03-04T06:33:46.341Z,87.82
2023-03-04T06:34:46.323Z,87.82
2023-03-04T06:35:46.341Z,87.82
2023-03-04T06:36:46.317Z,87.82
2023-03-04T06:37:46.330Z,87.82
2023-03-04T06:38:46.279Z,87.71
2023-03-04T06:39:46.278Z,87.71
2023-03-04T06:40:46.260Z,87.61
2023-03-04T06:41:46.301Z,87.61
2023-03-04T06:42:46.237Z,87.51
2023-03-04T06:43:46.533Z,87.51
2023-03-04T06:44:46.323Z,87.40
2023-03-04T06:45:46.217Z,87.40
2023-03-04T06:46:46.219Z,87.40
2023-03-04T06:47:46.208Z,87.30
2023-03-04T06:48:46.178Z,87.15
2023-03-04T06:49:46.202Z,87.15
2023-03-04T06:50:46.162Z,87.05
2023-03-04T06:51:46.181Z,86.94
2023-03-04T06:52:46.134Z,87.05
2023-03-04T06:53:46.119Z,86.94
2023-03-04T06:54:46.096Z,86.84
2023-03-04T06:55:46.103Z,86.84
2023-03-04T06:56:46.125Z,86.84
2023-03-04T06:57:48.441Z,86.84
2023-03-04T06:58:46.066Z,86.74
2023-03-04T06:59:46.179Z,86.49
2023-03-04T07:00:46.130Z,86.28
2023-03-04T07:01:46.034Z,86.18
2023-03-04T07:02:46.038Z,86.18
2023-03-04T07:03:46.094Z,86.07
2023-03-04T07:04:45.989Z,85.97
2023-03-04T07:05:46.617Z,85.86
2023-03-04T07:06:45.989Z,85.65
2023-03-04T07:07:46.028Z,85.65
2023-03-04T07:08:45.948Z,85.65
2023-03-04T07:09:45.935Z,85.55
2023-03-04T07:10:45.947Z,85.44
2023-03-04T07:11:46.496Z,85.44
2023-03-04T07:12:45.985Z,85.34
2023-03-04T07:13:45.906Z,85.24
2023-03-04T07:14:45.880Z,85.20
2023-03-04T07:15:45.877Z,85.10
2023-03-04T07:16:45.961Z,85.10
2023-03-04T07:17:45.846Z,84.88
2023-03-04T07:18:45.879Z,84.88
2023-03-04T07:19:45.833Z,84.88
2023-03-04T07:20:45.829Z,85.10
2023-03-04T07:21:45.847Z,84.99
2023-03-04T07:22:45.809Z,84.88
2023-03-04T07:23:45.813Z,84.88
2023-03-04T07:24:45.768Z,84.74
2023-03-04T07:25:45.810Z,84.74
2023-03-04T07:26:45.784Z,84.64
2023-03-04T07:27:45.821Z,84.64
2023-03-04T07:28:45.733Z,84.53
2023-03-04T07:29:45.727Z,84.53
2023-03-04T07:30:45.728Z,84.33
2023-03-04T07:31:45.714Z,84.01
2023-03-04T07:32:45.821Z,83.59
2023-03-04T07:33:45.691Z,83.49
2023-03-04T07:34:45.807Z,83.18
2023-03-04T07:35:45.702Z,83.14
2023-03-04T07:36:45.669Z,83.14
2023-03-04T07:37:45.667Z,83.04
2023-03-04T07:38:45.677Z,82.93
2023-03-04T07:39:45.657Z,82.93
2023-03-04T07:40:45.655Z,82.82
2023-03-04T07:41:45.589Z,82.72
2023-03-04T07:42:45.586Z,82.31
2023-03-04T07:43:45.571Z,82.41
2023-03-04T07:44:45.556Z,82.51
2023-03-04T07:45:45.569Z,82.51
2023-03-04T07:46:45.570Z,81.99
2023-03-04T07:47:45.531Z,81.89
2023-03-04T07:48:45.536Z,81.89
2023-03-04T07:49:45.560Z,81.79
2023-03-04T07:50:45.503Z,81.58
2023-03-04T07:51:45.481Z,81.65
2023-03-04T07:52:45.464Z,81.75
2023-03-04T07:53:45.574Z,81.65
2023-03-04T07:54:45.437Z,81.54
2023-03-04T07:55:45.460Z,81.43
2023-03-04T07:56:45.425Z,81.54
2023-03-04T07:57:45.446Z,81.54
2023-03-04T07:58:47.134Z,81.54
2023-03-04T07:59:45.390Z,81.65
2023-03-04T08:00:46.114Z,81.65
2023-03-04T08:01:45.774Z,81.75
2023-03-04T08:02:45.436Z,81.43
2023-03-04T08:03:45.378Z,81.54
2023-03-04T08:04:45.383Z,81.54
2023-03-04T08:05:46.834Z,81.43
2023-03-04T08:06:45.315Z,81.43
2023-03-04T08:07:45.295Z,81.65
2023-03-04T08:08:45.308Z,81.75
2023-03-04T08:09:45.353Z,81.85
2023-03-04T08:10:45.292Z,81.75
2023-03-04T08:11:45.863Z,81.65
2023-03-04T08:12:45.252Z,81.75
2023-03-04T08:13:45.332Z,81.65
2023-03-04T08:14:45.297Z,81.54
2023-03-04T08:15:45.242Z,81.43
2023-03-04T08:16:45.201Z,81.23
2023-03-04T08:17:45.223Z,81.43
2023-03-04T08:18:45.181Z,81.54
2023-03-04T08:19:45.211Z,81.29
2023-03-04T08:20:45.204Z,81.29
2023-03-04T08:21:45.145Z,81.29
2023-03-04T08:22:45.161Z,81.29
2023-03-04T08:23:45.181Z,80.88
2023-03-04T08:24:45.170Z,80.26
2023-03-04T08:25:45.105Z,80.26
2023-03-04T08:26:45.119Z,80.36
2023-03-04T08:27:45.093Z,80.36
2023-03-04T08:28:45.080Z,80.36
2023-03-04T08:29:45.080Z,80.57
2023-03-04T08:30:45.068Z,80.57
2023-03-04T08:31:46.891Z,80.46
2023-03-04T08:32:45.132Z,80.36
2023-03-04T08:33:45.007Z,80.36
2023-03-04T08:34:45.003Z,80.57
2023-03-04T08:35:45.029Z,80.67
2023-03-04T08:36:45.012Z,80.67
2023-03-04T08:37:44.981Z,80.26
2023-03-04T08:38:44.989Z,80.05
2023-03-04T08:39:44.947Z,80.05
2023-03-04T08:40:44.951Z,80.05
2023-03-04T08:41:44.958Z,80.36
2023-03-04T08:42:44.921Z,80.26
2023-03-04T08:43:44.929Z,80.15
2023-03-04T08:44:44.906Z,80.46
2023-03-04T08:45:44.963Z,80.46
2023-03-04T08:46:44.923Z,80.36
2023-03-04T08:47:44.949Z,79.94
2023-03-04T08:48:44.876Z,79.73
2023-03-04T08:49:44.872Z,79.63
2023-03-04T08:50:44.837Z,79.73
2023-03-04T08:51:44.810Z,79.63
2023-03-04T08:52:44.832Z,79.52
2023-03-04T08:53:44.791Z,79.42
2023-03-04T08:54:44.807Z,79.63
2023-03-04T08:55:44.773Z,79.52
2023-03-04T08:56:44.768Z,79.49
2023-03-04T08:57:44.747Z,79.07
2023-03-04T08:58:44.742Z,78.97
2023-03-04T08:59:44.741Z,78.86
2023-03-04T09:00:44.733Z,78.97
2023-03-04T09:01:44.769Z,78.86
2023-03-04T09:02:44.693Z,78.62
2023-03-04T09:03:44.943Z,78.31
2023-03-04T09:04:44.680Z,78.20
2023-03-04T09:05:44.660Z,78.10
2023-03-04T09:06:44.651Z,78.20
2023-03-04T09:07:44.634Z,78.20
2023-03-04T09:08:44.645Z,78.31
2023-03-04T09:09:44.661Z,78.41
2023-03-04T09:10:44.609Z,78.62
2023-03-04T09:11:44.615Z,78.41
2023-03-04T09:12:44.594Z,78.00
2023-03-04T09:13:44.640Z,77.55
2023-03-04T09:14:44.570Z,77.34
2023-03-04T09:15:44.599Z,77.34
2023-03-04T09:16:44.555Z,77.34
2023-03-04T09:17:44.591Z,77.44
2023-03-04T09:18:44.571Z,77.65
2023-03-04T09:19:44.610Z,77.75
2023-03-04T09:20:44.625Z,77.86
2023-03-04T09:21:44.474Z,78.06
2023-03-04T09:22:44.501Z,77.20
2023-03-04T09:23:44.469Z,76.78
2023-03-04T09:24:44.462Z,76.57
2023-03-04T09:25:44.470Z,76.47
2023-03-04T09:26:44.444Z,76.06
2023-03-04T09:27:44.451Z,76.06
2023-03-04T09:28:44.409Z,76.26
2023-03-04T09:29:44.399Z,76.26
2023-03-04T09:30:44.566Z,76.16
2023-03-04T09:31:44.408Z,76.26
2023-03-04T09:32:44.377Z,76.33
2023-03-04T09:33:44.361Z,76.12
2023-03-04T09:34:45.618Z,75.50
2023-03-04T09:35:44.526Z,75.29
2023-03-04T09:36:44.339Z,75.19
2023-03-04T09:37:44.324Z,75.09
2023-03-04T09:38:44.301Z,74.88
2023-03-04T09:39:45.099Z,74.95
2023-03-04T09:40:44.288Z,74.74
2023-03-04T09:41:44.272Z,74.11
2023-03-04T09:42:46.415Z,73.70
2023-03-04T09:43:44.232Z,73.60
2023-03-04T09:44:44.232Z,73.80
2023-03-04T09:45:44.244Z,73.70
2023-03-04T09:46:44.274Z,73.60
2023-03-04T09:47:44.190Z,73.60
2023-03-04T09:48:44.199Z,73.39
2023-03-04T09:49:44.165Z,73.49
2023-03-04T09:50:44.222Z,73.80
2023-03-04T09:51:44.186Z,72.97
2023-03-04T09:52:44.248Z,72.97
2023-03-04T09:53:44.175Z,72.97
2023-03-04T09:54:44.125Z,72.97
2023-03-04T09:55:44.114Z,72.87
2023-03-04T09:56:44.163Z,72.45
2023-03-04T09:57:44.122Z,71.83
2023-03-04T09:58:44.089Z,72.32
2023-03-04T09:59:44.050Z,71.80
2023-03-04T10:00:44.114Z,71.70
2023-03-04T10:01:44.066Z,71.59
2023-03-04T10:02:44.059Z,71.08
2023-03-04T10:03:44.112Z,71.28
2023-03-04T10:04:44.058Z,71.28
2023-03-04T10:05:44.026Z,71.49
2023-03-04T10:06:43.987Z,71.18
2023-03-04T10:07:43.991Z,71.25
2023-03-04T10:08:43.980Z,71.56
2023-03-04T10:09:43.961Z,71.97
2023-03-04T10:10:44.055Z,72.39
2023-03-04T10:11:43.989Z,72.39
2023-03-04T10:12:43.952Z,72.18
2023-03-04T10:13:43.941Z,72.08
2023-03-04T10:14:43.931Z,72.25
2023-03-04T10:15:43.907Z,72.46
2023-03-04T10:16:43.906Z,72.46
2023-03-04T10:17:43.858Z,72.67
2023-03-04T10:18:43.865Z,72.67
2023-03-04T10:19:43.856Z,72.77
2023-03-04T10:20:43.876Z,72.46
2023-03-04T10:21:43.835Z,72.11
2023-03-04T10:22:43.864Z,71.70
2023-03-04T10:23:43.808Z,71.70
2023-03-04T10:24:43.781Z,71.18
2023-03-04T10:25:43.776Z,71.08
2023-03-04T10:26:43.769Z,70.76
2023-03-04T10:27:43.746Z,70.87
2023-03-04T10:28:43.737Z,71.18
2023-03-04T10:29:43.728Z,71.28
2023-03-04T10:30:44.612Z,71.28
2023-03-04T10:31:43.760Z,71.18
2023-03-04T10:32:43.742Z,70.97
2023-03-04T10:33:43.671Z,71.08
2023-03-04T10:34:44.598Z,71.18
2023-03-04T10:35:43.706Z,71.15
2023-03-04T10:36:43.896Z,71.15
2023-03-04T10:37:43.630Z,70.94
2023-03-04T10:38:43.656Z,70.42
2023-03-04T10:39:43.612Z,69.98
2023-03-04T10:40:45.862Z,69.67
2023-03-04T10:41:43.751Z,69.56
2023-03-04T10:42:43.711Z,68.84
2023-03-04T10:43:43.637Z,68.01
2023-03-04T10:44:43.627Z,67.80
2023-03-04T10:45:43.568Z,67.77
2023-03-04T10:46:43.546Z,67.98
2023-03-04T10:47:43.518Z,67.25
2023-03-04T10:48:43.560Z,66.53
2023-03-04T10:49:43.556Z,66.53
2023-03-04T10:50:43.488Z,66.42
2023-03-04T10:51:43.528Z,65.91
2023-03-04T10:52:43.469Z,66.22
2023-03-04T10:53:43.451Z,66.42
2023-03-04T10:54:43.508Z,66.32
2023-03-04T10:55:43.423Z,66.42
2023-03-04T10:56:43.624Z,66.94
2023-03-04T10:57:43.432Z,67.05
2023-03-04T10:58:43.392Z,66.63
2023-03-04T10:59:43.390Z,66.84
2023-03-04T11:00:43.410Z,67.05
2023-03-04T11:01:43.385Z,67.25
2023-03-04T11:02:43.338Z,66.84
2023-03-04T11:03:43.359Z,67.02
2023-03-04T11:04:43.407Z,66.81
2023-03-04T11:05:43.313Z,66.91
2023-03-04T11:06:43.315Z,67.05
2023-03-04T11:07:54.418Z,67.12
2023-03-04T11:08:43.285Z,67.12
2023-03-04T11:09:43.260Z,67.22
2023-03-04T11:10:43.301Z,67.22
2023-03-04T11:11:43.263Z,67.36
2023-03-04T11:12:43.252Z,67.77
2023-03-04T11:13:43.235Z,67.64
2023-03-04T11:14:43.230Z,67.74
2023-03-04T11:15:43.200Z,67.74
2023-03-04T11:16:43.247Z,67.43
2023-03-04T11:17:43.193Z,67.85
2023-03-04T11:18:44.024Z,67.54
2023-03-04T11:19:43.144Z,67.43
2023-03-04T11:20:43.184Z,67.43
2023-03-04T11:21:43.147Z,67.43
2023-03-04T11:22:43.203Z,67.43
2023-03-04T11:23:43.137Z,67.33
2023-03-04T11:24:43.125Z,67.43
2023-03-04T11:25:43.103Z,67.30
2023-03-04T11:26:43.089Z,67.40
2023-03-04T11:27:43.120Z,67.09
2023-03-04T11:28:43.075Z,67.09
2023-03-04T11:29:44.154Z,67.30
2023-03-04T11:30:43.134Z,67.30
2023-03-04T11:31:43.063Z,67.19
2023-03-04T11:32:43.088Z,67.19
2023-03-04T11:33:43.037Z,67.30
2023-03-04T11:34:42.992Z,67.19
2023-03-04T11:35:43.058Z,67.09
2023-03-04T11:36:46.561Z,66.99
2023-03-04T11:37:42.947Z,66.85
2023-03-04T11:38:44.743Z,66.64
2023-03-04T11:39:43.261Z,66.44
2023-03-04T11:40:42.984Z,66.33
2023-03-04T11:41:44.855Z,66.33
2023-03-04T11:42:42.945Z,66.13
2023-03-04T11:43:42.899Z,66.13
2023-03-04T11:44:42.940Z,66.03
2023-03-04T11:45:42.929Z,65.61
2023-03-04T11:46:42.907Z,65.72
2023-03-04T11:47:42.873Z,65.92
2023-03-04T11:48:42.856Z,66.13
2023-03-04T11:49:42.841Z,66.03
2023-03-04T11:50:42.844Z,66.23
2023-03-04T11:51:42.822Z,66.13
2023-03-04T11:52:42.923Z,66.13
2023-03-04T11:53:45.751Z,66.33
2023-03-04T11:54:45.464Z,66.33
2023-03-04T11:55:42.785Z,66.54
2023-03-04T11:56:45.528Z,66.33
2023-03-04T11:57:42.777Z,66.10
2023-03-04T11:58:42.802Z,66.00
2023-03-04T11:59:42.724Z,65.79
2023-03-04T12:00:43.683Z,65.89
2023-03-04T12:01:42.754Z,65.89
2023-03-04T12:02:42.784Z,65.69
2023-03-04T12:03:45.472Z,65.58
2023-03-04T12:04:43.067Z,65.69
2023-03-04T12:05:42.714Z,65.69
2023-03-04T12:06:42.675Z,65.58
2023-03-04T12:07:43.385Z,65.37
2023-03-04T12:08:45.685Z,65.17
2023-03-04T12:09:43.596Z,65.27
2023-03-04T12:10:44.890Z,65.17
2023-03-04T12:11:42.675Z,65.37
2023-03-04T12:12:43.179Z,65.17
2023-03-04T12:13:43.197Z,65.14
2023-03-04T12:14:42.569Z,64.86
2023-03-04T12:15:45.778Z,65.06
2023-03-04T12:16:42.586Z,65.06
2023-03-04T12:17:42.554Z,65.06
2023-03-04T12:18:42.989Z,64.96
2023-03-04T12:19:42.520Z,65.06
2023-03-04T12:20:45.196Z,64.86
2023-03-04T12:21:42.556Z,64.93
2023-03-04T12:22:42.485Z,64.52
2023-03-04T12:23:42.502Z,64.73
2023-03-04T12:24:42.448Z,64.83
2023-03-04T12:25:43.516Z,64.83
2023-03-04T12:26:43.697Z,64.93
2023-03-04T12:27:48.828Z,64.93
2023-03-04T12:28:42.442Z,64.93
2023-03-04T12:29:42.430Z,65.03
2023-03-04T12:30:42.445Z,65.24
2023-03-04T12:31:42.378Z,65.34
2023-03-04T12:32:42.383Z,65.45
2023-03-04T12:33:42.451Z,65.45
2023-03-04T12:34:42.350Z,65.34
2023-03-04T12:35:45.192Z,65.14
2023-03-04T12:36:42.375Z,65.24
2023-03-04T12:37:42.324Z,65.14
2023-03-04T12:38:42.343Z,64.93
2023-03-04T12:39:42.326Z,65.14
2023-03-04T12:40:42.277Z,65.03
2023-03-04T12:41:42.297Z,65.14
2023-03-04T12:42:44.889Z,64.83
2023-03-04T12:43:42.244Z,64.93
2023-03-04T12:44:42.306Z,65.14
2023-03-04T12:45:42.243Z,65.45
2023-03-04T12:46:42.306Z,65.86
2023-03-04T12:47:44.539Z,65.86
2023-03-04T12:48:42.185Z,66.20
2023-03-04T12:49:42.182Z,66.30
2023-03-04T12:50:42.157Z,66.61
2023-03-04T12:51:42.179Z,66.51
2023-03-04T12:52:42.187Z,66.82